createdAt,value
2023-01-15T00:01:44.366Z,8
2023-01-15T00:16:12.678Z,7.6
2023-01-15T00:30:56.324Z,7.3
2023-01-15T00:45:20.515Z,6.9
2023-01-15T00:59:51.044Z,6.6
2023-01-15T01:14:22.165Z,6.6
2023-01-15T01:28:53.340Z,6.3
2023-01-15T01:43:24.499Z,6.3
2023-01-15T01:57:55.938Z,6.4
2023-01-15T02:12:25.976Z,6.3
2023-01-15T02:26:55.820Z,6.2
2023-01-15T02:41:26.351Z,6.3
2023-01-15T02:55:57.790Z,6.1
2023-01-15T03:10:29.013Z,6.2
2023-01-15T03:24:58.406Z,5.8
2023-01-15T03:39:28.927Z,5.8
2023-01-15T03:53:59.835Z,5.8
2023-01-15T04:08:28.635Z,5.7
2023-01-15T04:22:59.117Z,5.7
2023-01-15T04:37:32.033Z,5.6
2023-01-15T04:52:03.284Z,5.6
2023-01-15T05:06:34.516Z,5.6
2023-01-15T05:21:05.130Z,5.4
2023-01-15T05:35:36.393Z,5.5
2023-01-15T05:50:05.555Z,5.5
2023-01-15T06:04:36.255Z,5.4
2023-01-15T06:19:09.676Z,5.4
2023-01-15T06:33:40.401Z,5.3
2023-01-15T06:48:09.426Z,4.8
2023-01-15T07:02:40.479Z,4.9
2023-01-15T07:17:11.809Z,5.1
2023-01-15T07:31:43.549Z,5.2
2023-01-15T07:46:13.843Z,5.3
2023-01-15T08:00:57.826Z,5.2
2023-01-15T08:15:21.631Z,5.1
2023-01-15T08:29:51.692Z,5
2023-01-15T08:44:22.589Z,5.2
2023-01-15T08:58:55.117Z,4.6
2023-01-15T09:13:26.083Z,4.3
2023-01-15T09:27:55.440Z,4.6
2023-01-15T09:42:24.773Z,4.7
2023-01-15T09:56:54.637Z,4.7
2023-01-15T10:11:24.168Z,4.6
2023-01-15T10:25:55.439Z,4.9
2023-01-15T10:40:28.013Z,5.3
2023-01-15T10:55:00.797Z,5.6
2023-01-15T11:09:32.614Z,5.3
2023-01-15T11:24:03.848Z,4.7
2023-01-15T11:38:36.068Z,3.9
2023-01-15T11:53:06.875Z,3.8
2023-01-15T12:07:41.100Z,3
2023-01-15T12:22:10.441Z,2.7
2023-01-15T12:36:41.598Z,3
2023-01-15T12:51:12.403Z,3
2023-01-15T13:05:43.291Z,3.1
2023-01-15T13:20:15.038Z,3
2023-01-15T13:34:45.829Z,3
2023-01-15T13:49:17.621Z,2.9
2023-01-15T14:03:49.955Z,3.1
2023-01-15T14:18:18.909Z,2.7
2023-01-15T14:32:51.572Z,2.7
2023-01-15T14:47:23.387Z,2.5
2023-01-15T15:01:55.748Z,2.5
2023-01-15T15:16:26.518Z,2.4
2023-01-15T15:30:57.496Z,2.3
2023-01-15T15:45:27.864Z,2.7
2023-01-15T15:59:59.109Z,2.8
2023-01-15T16:14:31.881Z,2.6
2023-01-15T16:29:01.171Z,2.7
2023-01-15T16:43:31.763Z,2.6
2023-01-15T16:58:03.095Z,2.5
2023-01-15T17:12:32.578Z,2.7
2023-01-15T17:27:04.061Z,2.5
2023-01-15T17:41:34.404Z,2.7
2023-01-15T17:56:05.655Z,2.7
2023-01-15T18:10:37.070Z,2.9
2023-01-15T18:25:06.277Z,3
2023-01-15T18:39:36.129Z,3.4
2023-01-15T18:54:06.511Z,3.7
2023-01-15T19:08:36.971Z,3.6
2023-01-15T19:23:06.726Z,3.7
2023-01-15T19:37:36.704Z,3.6
2023-01-15T19:52:07.743Z,3.5
2023-01-15T20:06:39.063Z,3.3
2023-01-15T20:21:12.475Z,3.4
2023-01-15T20:35:43.676Z,3.3
2023-01-15T20:50:16.327Z,3.2
2023-01-15T21:04:45.509Z,3.2
2023-01-15T21:19:17.498Z,3.4
2023-01-15T21:33:50.071Z,3.4
2023-01-15T21:48:21.320Z,3.2
2023-01-15T22:02:52.161Z,3.7
2023-01-15T22:17:22.341Z,4.4
2023-01-15T22:31:51.867Z,5.1
2023-01-15T22:46:24.019Z,5.1
2023-01-15T23:00:54.515Z,5.1
2023-01-15T23:15:26.368Z,5.1
2023-01-15T23:29:57.374Z,5.1
2023-01-15T23:44:28.640Z,4.8
2023-01-15T23:58:59.125Z,5.1
